sensor_id;sensor_type;location;lat;lon;timestamp;pressure;altitude;pressure_sealevel;temperature;humidity
11987;BME280;6053;51.382;6.768;2023-04-10T00:01:19;101838.03;;;14.42;74.86
11987;BME280;6053;51.382;6.768;2023-04-10T00:03:48;101833.16;;;14.37;74.98
11987;BME280;6053;51.382;6.768;2023-04-10T00:06:16;101834.06;;;14.31;73.55
11987;BME280;6053;51.382;6.768;2023-04-10T00:08:44;101830.22;;;14.32;74.38
11987;BME280;6053;51.382;6.768;2023-04-10T00:11:13;101826.69;;;14.25;74.23
11987;BME280;6053;51.382;6.768;2023-04-10T00:13:42;101821.72;;;14.27;73.48
11987;BME280;6053;51.382;6.768;2023-04-10T00:16:11;101814.25;;;14.46;73.24
11987;BME280;6053;51.382;6.768;2023-04-10T00:18:39;101813.09;;;14.17;72.52
11987;BME280;6053;51.382;6.768;2023-04-10T00:21:07;101805.97;;;13.84;75.98
11987;BME280;6053;51.382;6.768;2023-04-10T00:23:36;101804.50;;;13.82;74.13
11987;BME280;6053;51.382;6.768;2023-04-10T00:26:05;101798.56;;;13.53;75.27
11987;BME280;6053;51.382;6.768;2023-04-10T00:28:33;101804.56;;;13.18;65.44
11987;BME280;6053;51.382;6.768;2023-04-10T00:31:05;101804.31;;;13.58;76.03
11987;BME280;6053;51.382;6.768;2023-04-10T00:33:33;101794.78;;;13.73;76.18
11987;BME280;6053;51.382;6.768;2023-04-10T00:36:01;101793.31;;;13.70;71.97
11987;BME280;6053;51.382;6.768;2023-04-10T00:38:30;101793.59;;;13.05;69.13
11987;BME280;6053;51.382;6.768;2023-04-10T00:40:58;101790.16;;;13.41;78.54
11987;BME280;6053;51.382;6.768;2023-04-10T00:43:26;101781.31;;;12.94;71.45
11987;BME280;6053;51.382;6.768;2023-04-10T00:45:55;101785.50;;;13.35;72.82
11987;BME280;6053;51.382;6.768;2023-04-10T00:48:25;101790.72;;;13.75;74.82
11987;BME280;6053;51.382;6.768;2023-04-10T00:50:53;101784.72;;;13.78;69.87
11987;BME280;6053;51.382;6.768;2023-04-10T00:53:21;101790.97;;;13.92;76.06
11987;BME280;6053;51.382;6.768;2023-04-10T00:55:50;101786.41;;;13.98;75.74
11987;BME280;6053;51.382;6.768;2023-04-10T00:58:18;101784.34;;;13.68;74.32
11987;BME280;6053;51.382;6.768;2023-04-10T01:00:47;101791.97;;;13.98;69.28
11987;BME280;6053;51.382;6.768;2023-04-10T01:03:17;101779.56;;;13.82;74.63
11987;BME280;6053;51.382;6.768;2023-04-10T01:05:55;101778.31;;;13.96;74.50
11987;BME280;6053;51.382;6.768;2023-04-10T01:08:38;101779.09;;;13.60;75.88
11987;BME280;6053;51.382;6.768;2023-04-10T01:11:23;101771.25;;;13.57;75.41
11987;BME280;6053;51.382;6.768;2023-04-10T01:14:03;101768.84;;;13.85;74.98
11987;BME280;6053;51.382;6.768;2023-04-10T01:16:37;101765.38;;;13.72;67.07
11987;BME280;6053;51.382;6.768;2023-04-10T01:19:24;101768.53;;;13.50;73.55
11987;BME280;6053;51.382;6.768;2023-04-10T01:21:56;101764.88;;;13.75;75.82
11987;BME280;6053;51.382;6.768;2023-04-10T01:24:41;101763.44;;;13.72;66.37
11987;BME280;6053;51.382;6.768;2023-04-10T01:27:33;101755.66;;;13.81;75.60
11987;BME280;6053;51.382;6.768;2023-04-10T01:30:06;101756.16;;;13.71;74.05
11987;BME280;6053;51.382;6.768;2023-04-10T01:32:39;101751.31;;;13.66;73.38
11987;BME280;6053;51.382;6.768;2023-04-10T01:35:09;101740.88;;;13.43;67.95
11987;BME280;6053;51.382;6.768;2023-04-10T01:37:41;101743.63;;;13.68;74.73
11987;BME280;6053;51.382;6.768;2023-04-10T01:40:14;101734.19;;;13.51;73.09
11987;BME280;6053;51.382;6.768;2023-04-10T01:42:47;101730.94;;;13.36;74.57
11987;BME280;6053;51.382;6.768;2023-04-10T01:45:22;101729.38;;;13.15;76.81
11987;BME280;6053;51.382;6.768;2023-04-10T01:47:51;101727.00;;;13.18;75.78
11987;BME280;6053;51.382;6.768;2023-04-10T01:50:21;101726.66;;;13.58;75.17
11987;BME280;6053;51.382;6.768;2023-04-10T01:52:50;101726.34;;;13.48;70.12
11987;BME280;6053;51.382;6.768;2023-04-10T01:55:20;101730.34;;;13.52;74.13
11987;BME280;6053;51.382;6.768;2023-04-10T01:57:48;101734.06;;;13.64;70.25
11987;BME280;6053;51.382;6.768;2023-04-10T02:00:19;101729.16;;;12.08;70.52
11987;BME280;6053;51.382;6.768;2023-04-10T02:02:48;101729.88;;;13.05;76.62
11987;BME280;6053;51.382;6.768;2023-04-10T02:05:17;101738.94;;;13.19;76.12
11987;BME280;6053;51.382;6.768;2023-04-10T02:07:53;101732.56;;;13.43;74.74
11987;BME280;6053;51.382;6.768;2023-04-10T02:10:28;101721.78;;;13.35;70.15
11987;BME280;6053;51.382;6.768;2023-04-10T02:13:02;101718.25;;;13.21;76.29
11987;BME280;6053;51.382;6.768;2023-04-10T02:15:34;101720.88;;;13.10;77.45
11987;BME280;6053;51.382;6.768;2023-04-10T02:18:04;101724.09;;;13.07;68.06
11987;BME280;6053;51.382;6.768;2023-04-10T02:20:34;101709.66;;;13.55;73.47
11987;BME280;6053;51.382;6.768;2023-04-10T02:23:03;101713.94;;;13.51;73.08
11987;BME280;6053;51.382;6.768;2023-04-10T02:25:33;101712.91;;;13.20;73.49
11987;BME280;6053;51.382;6.768;2023-04-10T02:28:03;101712.19;;;13.56;72.59
11987;BME280;6053;51.382;6.768;2023-04-10T02:30:33;101712.75;;;13.15;69.57
11987;BME280;6053;51.382;6.768;2023-04-10T02:33:02;101712.13;;;12.49;72.53
11987;BME280;6053;51.382;6.768;2023-04-10T02:35:30;101713.50;;;12.72;77.51
11987;BME280;6053;51.382;6.768;2023-04-10T02:37:59;101719.69;;;12.99;72.61
11987;BME280;6053;51.382;6.768;2023-04-10T02:40:27;101715.31;;;13.41;74.20
11987;BME280;6053;51.382;6.768;2023-04-10T02:42:55;101710.94;;;13.02;74.70
11987;BME280;6053;51.382;6.768;2023-04-10T02:45:24;101715.94;;;12.87;75.11
11987;BME280;6053;51.382;6.768;2023-04-10T02:47:53;101710.78;;;12.90;68.48
11987;BME280;6053;51.382;6.768;2023-04-10T02:50:22;101698.31;;;13.06;75.08
11987;BME280;6053;51.382;6.768;2023-04-10T02:52:50;101710.78;;;12.90;65.26
11987;BME280;6053;51.382;6.768;2023-04-10T02:55:18;101702.56;;;13.09;70.81
11987;BME280;6053;51.382;6.768;2023-04-10T02:57:46;101705.09;;;13.10;74.88
11987;BME280;6053;51.382;6.768;2023-04-10T03:00:15;101703.31;;;13.23;72.93
11987;BME280;6053;51.382;6.768;2023-04-10T03:02:45;101706.47;;;13.01;75.07
11987;BME280;6053;51.382;6.768;2023-04-10T03:05:15;101700.88;;;12.76;76.27
11987;BME280;6053;51.382;6.768;2023-04-10T03:07:43;101700.09;;;12.31;67.91
11987;BME280;6053;51.382;6.768;2023-04-10T03:10:11;101696.25;;;13.02;78.08
11987;BME280;6053;51.382;6.768;2023-04-10T03:12:39;101695.16;;;12.01;72.95
11987;BME280;6053;51.382;6.768;2023-04-10T03:15:09;101683.38;;;12.82;75.85
11987;BME280;6053;51.382;6.768;2023-04-10T03:17:37;101673.09;;;12.64;74.91
11987;BME280;6053;51.382;6.768;2023-04-10T03:20:08;101678.53;;;13.28;75.03
11987;BME280;6053;51.382;6.768;2023-04-10T03:22:38;101674.59;;;13.42;70.31
11987;BME280;6053;51.382;6.768;2023-04-10T03:25:08;101667.97;;;12.93;68.38
11987;BME280;6053;51.382;6.768;2023-04-10T03:27:37;101667.13;;;12.92;74.48
11987;BME280;6053;51.382;6.768;2023-04-10T03:30:08;101662.47;;;12.86;70.91
11987;BME280;6053;51.382;6.768;2023-04-10T03:32:37;101656.44;;;12.01;80.80
11987;BME280;6053;51.382;6.768;2023-04-10T03:35:08;101653.28;;;12.29;73.26
11987;BME280;6053;51.382;6.768;2023-04-10T03:37:39;101648.47;;;12.81;77.04
11987;BME280;6053;51.382;6.768;2023-04-10T03:40:09;101656.06;;;13.11;70.19
11987;BME280;6053;51.382;6.768;2023-04-10T03:42:37;101653.41;;;12.47;66.68
11987;BME280;6053;51.382;6.768;2023-04-10T03:45:07;101645.16;;;11.96;72.29
11987;BME280;6053;51.382;6.768;2023-04-10T03:47:36;101653.72;;;12.64;76.45
11987;BME280;6053;51.382;6.768;2023-04-10T03:50:05;101649.03;;;12.90;74.99
11987;BME280;6053;51.382;6.768;2023-04-10T03:52:33;101644.34;;;13.15;74.96
11987;BME280;6053;51.382;6.768;2023-04-10T03:55:04;101639.13;;;13.01;72.90
11987;BME280;6053;51.382;6.768;2023-04-10T03:57:32;101641.50;;;12.72;75.25
11987;BME280;6053;51.382;6.768;2023-04-10T04:00:01;101641.38;;;12.60;66.52
11987;BME280;6053;51.382;6.768;2023-04-10T04:02:29;101643.75;;;12.57;73.17
11987;BME280;6053;51.382;6.768;2023-04-10T04:04:58;101643.53;;;12.58;78.31
11987;BME280;6053;51.382;6.768;2023-04-10T04:07:26;101637.38;;;13.06;74.60
11987;BME280;6053;51.382;6.768;2023-04-10T04:09:55;101651.47;;;13.05;75.76
11987;BME280;6053;51.382;6.768;2023-04-10T04:12:25;101640.91;;;12.95;74.77
11987;BME280;6053;51.382;6.768;2023-04-10T04:14:53;101647.41;;;12.82;70.08
11987;BME280;6053;51.382;6.768;2023-04-10T04:17:22;101648.56;;;12.36;63.67
11987;BME280;6053;51.382;6.768;2023-04-10T04:19:50;101647.38;;;12.19;62.70
11987;BME280;6053;51.382;6.768;2023-04-10T04:22:19;101640.31;;;12.30;75.47
11987;BME280;6053;51.382;6.768;2023-04-10T04:24:48;101634.16;;;12.59;74.94
11987;BME280;6053;51.382;6.768;2023-04-10T04:27:16;101638.00;;;12.83;76.82
11987;BME280;6053;51.382;6.768;2023-04-10T04:29:47;101630.38;;;12.79;74.46
11987;BME280;6053;51.382;6.768;2023-04-10T04:32:15;101627.81;;;12.77;76.50
11987;BME280;6053;51.382;6.768;2023-04-10T04:34:44;101634.78;;;12.86;76.20
11987;BME280;6053;51.382;6.768;2023-04-10T04:37:12;101625.94;;;12.46;77.45
11987;BME280;6053;51.382;6.768;2023-04-10T04:39:40;101627.88;;;12.70;69.40
11987;BME280;6053;51.382;6.768;2023-04-10T04:42:08;101622.13;;;12.72;76.07
11987;BME280;6053;51.382;6.768;2023-04-10T04:44:37;101623.41;;;12.44;77.25
11987;BME280;6053;51.382;6.768;2023-04-10T04:47:06;101615.41;;;12.61;69.20
11987;BME280;6053;51.382;6.768;2023-04-10T04:49:34;101616.47;;;12.85;72.57
11987;BME280;6053;51.382;6.768;2023-04-10T04:52:03;101617.63;;;12.78;74.92
11987;BME280;6053;51.382;6.768;2023-04-10T04:54:31;101619.25;;;12.85;74.95
11987;BME280;6053;51.382;6.768;2023-04-10T04:56:59;101622.03;;;12.85;75.34
11987;BME280;6053;51.382;6.768;2023-04-10T04:59:28;101621.34;;;12.90;73.63
11987;BME280;6053;51.382;6.768;2023-04-10T05:01:57;101629.38;;;12.98;73.21
11987;BME280;6053;51.382;6.768;2023-04-10T05:04:26;101624.16;;;12.83;68.54
11987;BME280;6053;51.382;6.768;2023-04-10T05:06:55;101620.94;;;12.86;71.49
11987;BME280;6053;51.382;6.768;2023-04-10T05:09:23;101621.50;;;12.70;68.34
11987;BME280;6053;51.382;6.768;2023-04-10T05:11:51;101619.13;;;12.73;75.29
11987;BME280;6053;51.382;6.768;2023-04-10T05:14:20;101620.69;;;12.38;71.71
11987;BME280;6053;51.382;6.768;2023-04-10T05:16:48;101617.16;;;12.56;74.68
11987;BME280;6053;51.382;6.768;2023-04-10T05:19:17;101622.22;;;12.84;74.57
11987;BME280;6053;51.382;6.768;2023-04-10T05:21:46;101620.94;;;12.86;74.01
11987;BME280;6053;51.382;6.768;2023-04-10T05:24:15;101625.00;;;12.27;70.94
11987;BME280;6053;51.382;6.768;2023-04-10T05:26:43;101633.19;;;12.40;72.57
11987;BME280;6053;51.382;6.768;2023-04-10T05:29:11;101637.75;;;11.76;75.46
11987;BME280;6053;51.382;6.768;2023-04-10T05:31:39;101624.03;;;12.96;73.31
11987;BME280;6053;51.382;6.768;2023-04-10T05:34:08;101630.34;;;12.22;69.93
11987;BME280;6053;51.382;6.768;2023-04-10T05:36:36;101632.06;;;11.65;68.87
11987;BME280;6053;51.382;6.768;2023-04-10T05:39:06;101627.72;;;11.30;68.31
11987;BME280;6053;51.382;6.768;2023-04-10T05:41:34;101623.25;;;12.01;69.60
11987;BME280;6053;51.382;6.768;2023-04-10T05:44:03;101620.75;;;11.86;63.78
11987;BME280;6053;51.382;6.768;2023-04-10T05:46:31;101624.06;;;11.30;65.43
11987;BME280;6053;51.382;6.768;2023-04-10T05:49:00;101623.13;;;12.53;63.39
11987;BME280;6053;51.382;6.768;2023-04-10T05:51:29;101627.13;;;11.73;62.82
11987;BME280;6053;51.382;6.768;2023-04-10T05:53:58;101614.47;;;12.67;66.36
11987;BME280;6053;51.382;6.768;2023-04-10T05:56:28;101620.53;;;12.83;67.69
11987;BME280;6053;51.382;6.768;2023-04-10T05:58:56;101621.00;;;12.55;57.21
11987;BME280;6053;51.382;6.768;2023-04-10T06:01:25;101617.38;;;11.77;62.18
11987;BME280;6053;51.382;6.768;2023-04-10T06:03:53;101614.72;;;12.02;60.38
11987;BME280;6053;51.382;6.768;2023-04-10T06:06:22;101607.38;;;12.21;57.85
11987;BME280;6053;51.382;6.768;2023-04-10T06:08:52;101612.16;;;12.08;61.54
11987;BME280;6053;51.382;6.768;2023-04-10T06:11:20;101605.03;;;13.00;59.28
11987;BME280;6053;51.382;6.768;2023-04-10T06:13:50;101586.75;;;12.49;60.77
11987;BME280;6053;51.382;6.768;2023-04-10T06:16:18;101589.28;;;11.87;58.13
11987;BME280;6053;51.382;6.768;2023-04-10T06:18:47;101606.66;;;12.33;64.95
11987;BME280;6053;51.382;6.768;2023-04-10T06:21:18;101602.06;;;11.75;59.12
11987;BME280;6053;51.382;6.768;2023-04-10T06:23:47;101605.22;;;12.23;63.21
11987;BME280;6053;51.382;6.768;2023-04-10T06:26:15;101595.81;;;12.88;61.77
11987;BME280;6053;51.382;6.768;2023-04-10T06:28:44;101609.06;;;12.22;61.30
11987;BME280;6053;51.382;6.768;2023-04-10T06:31:14;101611.59;;;12.81;56.23
11987;BME280;6053;51.382;6.768;2023-04-10T06:33:42;101601.03;;;13.58;54.63
11987;BME280;6053;51.382;6.768;2023-04-10T06:36:10;101598.72;;;13.18;54.29
11987;BME280;6053;51.382;6.768;2023-04-10T06:38:38;101606.19;;;12.92;54.42
11987;BME280;6053;51.382;6.768;2023-04-10T06:41:07;101589.06;;;13.02;57.66
11987;BME280;6053;51.382;6.768;2023-04-10T06:43:37;101593.06;;;13.31;54.47
11987;BME280;6053;51.382;6.768;2023-04-10T06:46:06;101596.03;;;13.30;58.78
11987;BME280;6053;51.382;6.768;2023-04-10T06:48:36;101585.97;;;13.54;58.00
11987;BME280;6053;51.382;6.768;2023-04-10T06:51:05;101581.72;;;13.51;53.12
11987;BME280;6053;51.382;6.768;2023-04-10T06:53:33;101592.44;;;13.66;54.24
11987;BME280;6053;51.382;6.768;2023-04-10T06:56:02;101583.28;;;13.29;54.68
11987;BME280;6053;51.382;6.768;2023-04-10T06:58:30;101574.97;;;13.04;55.79
11987;BME280;6053;51.382;6.768;2023-04-10T07:00:58;101572.66;;;12.25;56.50
11987;BME280;6053;51.382;6.768;2023-04-10T07:03:30;101565.78;;;12.35;57.26
11987;BME280;6053;51.382;6.768;2023-04-10T07:06:01;101564.72;;;12.04;55.79
11987;BME280;6053;51.382;6.768;2023-04-10T07:08:30;101562.78;;;12.86;59.36
11987;BME280;6053;51.382;6.768;2023-04-10T07:10:58;101568.09;;;13.50;56.22
11987;BME280;6053;51.382;6.768;2023-04-10T07:13:27;101570.25;;;13.29;54.87
11987;BME280;6053;51.382;6.768;2023-04-10T07:15:55;101562.72;;;12.93;55.03
11987;BME280;6053;51.382;6.768;2023-04-10T07:18:23;101569.16;;;12.87;54.04
11987;BME280;6053;51.382;6.768;2023-04-10T07:20:52;101564.09;;;13.27;54.63
11987;BME280;6053;51.382;6.768;2023-04-10T07:23:21;101561.44;;;13.14;53.65
11987;BME280;6053;51.382;6.768;2023-04-10T07:25:49;101556.22;;;13.06;55.01
11987;BME280;6053;51.382;6.768;2023-04-10T07:28:18;101541.13;;;13.02;56.63
11987;BME280;6053;51.382;6.768;2023-04-10T07:30:47;101539.00;;;12.79;59.61
11987;BME280;6053;51.382;6.768;2023-04-10T07:33:15;101548.97;;;12.61;54.28
11987;BME280;6053;51.382;6.768;2023-04-10T07:35:43;101544.66;;;13.09;56.40
11987;BME280;6053;51.382;6.768;2023-04-10T07:38:12;101546.31;;;12.48;54.54
11987;BME280;6053;51.382;6.768;2023-04-10T07:40:41;101547.44;;;12.40;55.21
11987;BME280;6053;51.382;6.768;2023-04-10T07:43:09;101533.47;;;12.79;61.45
11987;BME280;6053;51.382;6.768;2023-04-10T07:45:38;101526.81;;;13.23;55.27
11987;BME280;6053;51.382;6.768;2023-04-10T07:48:06;101527.63;;;13.49;53.15
11987;BME280;6053;51.382;6.768;2023-04-10T07:50:34;101526.09;;;13.64;53.87
11987;BME280;6053;51.382;6.768;2023-04-10T07:53:03;101522.38;;;13.59;54.87
11987;BME280;6053;51.382;6.768;2023-04-10T07:55:37;101514.59;;;14.87;55.98
11987;BME280;6053;51.382;6.768;2023-04-10T07:58:07;101516.47;;;15.21;50.50
11987;BME280;6053;51.382;6.768;2023-04-10T08:00:36;101506.00;;;15.00;49.15
11987;BME280;6053;51.382;6.768;2023-04-10T08:03:04;101515.41;;;14.52;48.13
11987;BME280;6053;51.382;6.768;2023-04-10T08:05:33;101495.19;;;14.09;50.94
11987;BME280;6053;51.382;6.768;2023-04-10T08:08:02;101494.75;;;13.82;49.79
11987;BME280;6053;51.382;6.768;2023-04-10T08:10:30;101481.38;;;13.61;52.04
11987;BME280;6053;51.382;6.768;2023-04-10T08:12:58;101494.09;;;14.10;52.29
11987;BME280;6053;51.382;6.768;2023-04-10T08:15:28;101485.31;;;14.37;50.68
11987;BME280;6053;51.382;6.768;2023-04-10T08:17:56;101495.66;;;13.76;50.60
11987;BME280;6053;51.382;6.768;2023-04-10T08:20:26;101490.16;;;14.42;51.76
11987;BME280;6053;51.382;6.768;2023-04-10T08:22:55;101488.53;;;14.52;48.47
11987;BME280;6053;51.382;6.768;2023-04-10T08:25:38;101476.06;;;14.01;48.90
11987;BME280;6053;51.382;6.768;2023-04-10T08:28:07;101475.41;;;14.18;52.25
11987;BME280;6053;51.382;6.768;2023-04-10T08:30:36;101477.88;;;14.49;48.92
11987;BME280;6053;51.382;6.768;2023-04-10T08:33:05;101471.84;;;14.88;48.05
11987;BME280;6053;51.382;6.768;2023-04-10T08:35:33;101473.75;;;14.40;49.65
11987;BME280;6053;51.382;6.768;2023-04-10T08:38:01;101466.78;;;14.61;50.90
11987;BME280;6053;51.382;6.768;2023-04-10T08:40:40;101454.31;;;14.40;50.45
11987;BME280;6053;51.382;6.768;2023-04-10T08:43:10;101462.69;;;13.98;50.18
11987;BME280;6053;51.382;6.768;2023-04-10T08:45:41;101445.72;;;14.06;51.55
11987;BME280;6053;51.382;6.768;2023-04-10T08:48:10;101444.97;;;14.11;49.31
11987;BME280;6053;51.382;6.768;2023-04-10T08:50:41;101449.00;;;13.73;53.05
11987;BME280;6053;51.382;6.768;2023-04-10T08:53:13;101445.19;;;13.86;50.34
11987;BME280;6053;51.382;6.768;2023-04-10T08:55:43;101441.16;;;14.12;49.81
11987;BME280;6053;51.382;6.768;2023-04-10T08:58:12;101446.75;;;13.82;50.10
11987;BME280;6053;51.382;6.768;2023-04-10T09:00:43;101435.94;;;14.04;52.82
11987;BME280;6053;51.382;6.768;2023-04-10T09:03:11;101434.16;;;14.45;54.04
11987;BME280;6053;51.382;6.768;2023-04-10T09:05:41;101430.69;;;14.61;51.77
11987;BME280;6053;51.382;6.768;2023-04-10T09:08:09;101429.09;;;14.30;49.12
11987;BME280;6053;51.382;6.768;2023-04-10T09:10:38;101431.13;;;14.81;48.30
11987;BME280;6053;51.382;6.768;2023-04-10T09:13:08;101424.97;;;14.91;47.37
11987;BME280;6053;51.382;6.768;2023-04-10T09:15:57;101432.88;;;15.80;47.12
11987;BME280;6053;51.382;6.768;2023-04-10T09:18:45;101430.50;;;15.43;46.28
11987;BME280;6053;51.382;6.768;2023-04-10T09:21:16;101430.03;;;16.25;46.17
11987;BME280;6053;51.382;6.768;2023-04-10T09:23:46;101430.03;;;16.25;47.90
11987;BME280;6053;51.382;6.768;2023-04-10T09:26:25;101437.66;;;15.39;46.82
11987;BME280;6053;51.382;6.768;2023-04-10T09:28:59;101436.38;;;15.18;46.72
11987;BME280;6053;51.382;6.768;2023-04-10T09:31:32;101434.97;;;15.04;48.22
11987;BME280;6053;51.382;6.768;2023-04-10T09:34:09;101428.91;;;15.47;55.87
11987;BME280;6053;51.382;6.768;2023-04-10T09:36:38;101442.44;;;15.44;47.24
11987;BME280;6053;51.382;6.768;2023-04-10T09:39:09;101408.44;;;15.53;47.44
11987;BME280;6053;51.382;6.768;2023-04-10T09:41:49;101404.56;;;15.54;46.76
11987;BME280;6053;51.382;6.768;2023-04-10T09:44:28;101417.00;;;15.52;47.10
11987;BME280;6053;51.382;6.768;2023-04-10T09:47:14;101411.19;;;14.96;47.38
11987;BME280;6053;51.382;6.768;2023-04-10T09:49:45;101412.03;;;15.37;47.67
11987;BME280;6053;51.382;6.768;2023-04-10T09:52:18;101393.59;;;15.48;46.64
11987;BME280;6053;51.382;6.768;2023-04-10T09:54:46;101390.72;;;15.71;47.11
11987;BME280;6053;51.382;6.768;2023-04-10T09:57:17;101392.78;;;15.64;45.53
11987;BME280;6053;51.382;6.768;2023-04-10T09:59:49;101390.25;;;15.63;47.22
11987;BME280;6053;51.382;6.768;2023-04-10T10:02:20;101385.16;;;15.71;47.78
11987;BME280;6053;51.382;6.768;2023-04-10T10:04:51;101378.50;;;15.44;50.10
11987;BME280;6053;51.382;6.768;2023-04-10T10:07:21;101386.44;;;15.97;47.37
11987;BME280;6053;51.382;6.768;2023-04-10T10:09:51;101387.09;;;15.71;45.91
11987;BME280;6053;51.382;6.768;2023-04-10T10:12:23;101372.97;;;16.45;45.66
11987;BME280;6053;51.382;6.768;2023-04-10T10:15:00;101374.59;;;16.63;43.40
11987;BME280;6053;51.382;6.768;2023-04-10T10:17:42;101366.84;;;17.31;44.56
11987;BME280;6053;51.382;6.768;2023-04-10T10:20:12;101365.31;;;16.96;44.03
11987;BME280;6053;51.382;6.768;2023-04-10T10:22:44;101361.59;;;16.46;44.31
11987;BME280;6053;51.382;6.768;2023-04-10T10:25:13;101365.34;;;16.18;44.68
11987;BME280;6053;51.382;6.768;2023-04-10T10:27:42;101345.69;;;15.91;44.69
11987;BME280;6053;51.382;6.768;2023-04-10T10:30:12;101351.66;;;16.34;43.61
11987;BME280;6053;51.382;6.768;2023-04-10T10:32:58;101335.84;;;16.00;44.69
11987;BME280;6053;51.382;6.768;2023-04-10T10:35:27;101327.25;;;16.63;44.11
11987;BME280;6053;51.382;6.768;2023-04-10T10:37:58;101310.88;;;16.44;43.81
11987;BME280;6053;51.382;6.768;2023-04-10T10:40:31;101305.75;;;16.58;42.98
11987;BME280;6053;51.382;6.768;2023-04-10T10:43:12;101301.81;;;16.76;44.07
11987;BME280;6053;51.382;6.768;2023-04-10T10:45:49;101294.81;;;16.95;44.98
11987;BME280;6053;51.382;6.768;2023-04-10T10:48:20;101287.41;;;16.62;45.29
11987;BME280;6053;51.382;6.768;2023-04-10T10:50:54;101296.28;;;17.30;43.40
11987;BME280;6053;51.382;6.768;2023-04-10T10:53:36;101283.34;;;16.70;42.96
11987;BME280;6053;51.382;6.768;2023-04-10T10:56:33;101282.81;;;16.29;43.12
11987;BME280;6053;51.382;6.768;2023-04-10T10:59:02;101267.75;;;16.08;44.53
11987;BME280;6053;51.382;6.768;2023-04-10T11:01:30;101273.69;;;15.95;42.85
11987;BME280;6053;51.382;6.768;2023-04-10T11:04:00;101268.56;;;15.87;43.95
11987;BME280;6053;51.382;6.768;2023-04-10T11:06:50;101266.03;;;16.46;43.72
11987;BME280;6053;51.382;6.768;2023-04-10T11:09:45;101255.66;;;16.19;42.47
11987;BME280;6053;51.382;6.768;2023-04-10T11:12:19;101252.25;;;16.56;42.52
11987;BME280;6053;51.382;6.768;2023-04-10T11:14:57;101266.88;;;16.68;41.46
11987;BME280;6053;51.382;6.768;2023-04-10T11:17:48;101251.69;;;17.03;48.57
11987;BME280;6053;51.382;6.768;2023-04-10T11:20:20;101252.78;;;17.02;47.36
11987;BME280;6053;51.382;6.768;2023-04-10T11:23:09;101262.38;;;16.84;41.70
11987;BME280;6053;51.382;6.768;2023-04-10T11:25:49;101253.81;;;16.47;42.81
11987;BME280;6053;51.382;6.768;2023-04-10T11:28:37;101233.28;;;16.75;44.37
11987;BME280;6053;51.382;6.768;2023-04-10T11:31:20;101235.47;;;16.51;42.88
11987;BME280;6053;51.382;6.768;2023-04-10T11:33:59;101231.72;;;16.62;43.32
11987;BME280;6053;51.382;6.768;2023-04-10T11:36:29;101224.97;;;17.07;43.66
11987;BME280;6053;51.382;6.768;2023-04-10T11:38:59;101218.16;;;16.71;41.61
11987;BME280;6053;51.382;6.768;2023-04-10T11:41:30;101205.53;;;16.85;44.25
11987;BME280;6053;51.382;6.768;2023-04-10T11:43:59;101205.75;;;16.35;42.23
11987;BME280;6053;51.382;6.768;2023-04-10T11:46:28;101201.56;;;16.10;42.50
11987;BME280;6053;51.382;6.768;2023-04-10T11:48:59;101192.31;;;16.26;43.94
11987;BME280;6053;51.382;6.768;2023-04-10T11:51:30;101193.72;;;16.51;44.10
11987;BME280;6053;51.382;6.768;2023-04-10T11:54:06;101186.31;;;16.62;47.62
11987;BME280;6053;51.382;6.768;2023-04-10T11:56:36;101202.59;;;16.97;44.08
11987;BME280;6053;51.382;6.768;2023-04-10T11:59:04;101193.94;;;16.71;43.53
11987;BME280;6053;51.382;6.768;2023-04-10T12:01:37;101181.91;;;17.25;42.05
11987;BME280;6053;51.382;6.768;2023-04-10T12:04:16;101187.13;;;17.16;41.09
11987;BME280;6053;51.382;6.768;2023-04-10T12:06:47;101181.72;;;17.37;41.20
11987;BME280;6053;51.382;6.768;2023-04-10T12:09:17;101188.25;;;17.15;41.61
11987;BME280;6053;51.382;6.768;2023-04-10T12:11:50;101173.38;;;17.05;41.25
11987;BME280;6053;51.382;6.768;2023-04-10T12:14:19;101160.22;;;16.73;41.28
11987;BME280;6053;51.382;6.768;2023-04-10T12:16:49;101161.78;;;17.18;41.23
11987;BME280;6053;51.382;6.768;2023-04-10T12:19:18;101171.28;;;17.17;42.41
11987;BME280;6053;51.382;6.768;2023-04-10T12:21:48;101162.59;;;16.59;41.65
11987;BME280;6053;51.382;6.768;2023-04-10T12:24:41;101149.41;;;17.04;45.48
11987;BME280;6053;51.382;6.768;2023-04-10T12:27:15;101140.00;;;16.83;41.85
11987;BME280;6053;51.382;6.768;2023-04-10T12:29:45;101136.66;;;17.13;46.82
11987;BME280;6053;51.382;6.768;2023-04-10T12:32:14;101131.94;;;16.81;41.32
11987;BME280;6053;51.382;6.768;2023-04-10T12:34:49;101126.47;;;16.69;42.87
11987;BME280;6053;51.382;6.768;2023-04-10T12:37:19;101122.75;;;16.81;41.95
11987;BME280;6053;51.382;6.768;2023-04-10T12:39:47;101115.31;;;16.96;41.05
11987;BME280;6053;51.382;6.768;2023-04-10T12:42:17;101118.75;;;17.04;43.58
11987;BME280;6053;51.382;6.768;2023-04-10T12:44:51;101110.84;;;17.28;39.69
11987;BME280;6053;51.382;6.768;2023-04-10T12:47:20;101113.97;;;17.84;39.65
11987;BME280;6053;51.382;6.768;2023-04-10T12:50:08;101114.06;;;17.57;40.09
11987;BME280;6053;51.382;6.768;2023-04-10T12:52:40;101109.25;;;17.42;39.75
11987;BME280;6053;51.382;6.768;2023-04-10T12:55:11;101103.75;;;17.52;40.95
11987;BME280;6053;51.382;6.768;2023-04-10T12:57:41;101107.31;;;17.05;39.49
11987;BME280;6053;51.382;6.768;2023-04-10T13:00:12;101099.31;;;17.14;41.64
11987;BME280;6053;51.382;6.768;2023-04-10T13:02:40;101094.97;;;16.96;40.08
11987;BME280;6053;51.382;6.768;2023-04-10T13:05:09;101096.03;;;17.22;40.02
11987;BME280;6053;51.382;6.768;2023-04-10T13:07:39;101087.13;;;17.25;40.97
11987;BME280;6053;51.382;6.768;2023-04-10T13:10:08;101085.47;;;17.29;43.67
11987;BME280;6053;51.382;6.768;2023-04-10T13:12:37;101082.97;;;17.28;40.28
11987;BME280;6053;51.382;6.768;2023-04-10T13:15:07;101078.22;;;17.28;41.44
11987;BME280;6053;51.382;6.768;2023-04-10T13:17:36;101079.28;;;17.22;41.52
11987;BME280;6053;51.382;6.768;2023-04-10T13:20:09;101064.41;;;17.06;41.49